Time;durP1;ratioP1;P1;durP2;ratioP2;P2;SDS_P1;SDS_P2;PMS_P1;PMS_P2;Temp;Humidity;BMP_temperature;BMP_pressure;BME280_temperature;BME280_humidity;BME280_pressure;Samples;Min_cycle;Max_cycle;Signal;HPM_P1;HPM_P2
2022/06/02 00:00:02;;;;;;;;;;;;;;;15.01;39.33;101410.47;7359565;19;19982;-60
2022/06/02 00:02:46;;;;;;;;;;;;;;;14.96;38.93;101412.38;7357159;19;19921;-60
2022/06/02 00:05:32;;;;;;;;;;;;;;;14.89;39.25;101408.16;7359163;19;19959;-60
2022/06/02 00:07:57;;;;;;;;;;;;;;;14.82;39.50;101414.53;7358078;19;19921;-60
2022/06/02 00:10:49;;;;;;;;;;;;;;;14.76;39.39;101410.31;7360246;19;20364;-60
2022/06/02 00:13:14;;;;;;;;;;;;;;;14.69;39.45;101406.97;7259280;19;2004884;-60
2022/06/02 00:15:45;;;;;;;;;;;;;;;14.65;39.60;101413.25;7359972;19;20266;-60
2022/06/02 00:18:21;;;;;;;;;;;;;;;14.62;39.84;101418.56;7361767;19;19926;-60
2022/06/02 00:20:52;;;;;;;;;;;;;;;14.57;39.48;101417.84;7363958;19;19937;-61
2022/06/02 00:23:41;;;;;;;;;;;;;;;14.52;39.55;101422.38;7361284;19;19952;-61
2022/06/02 00:26:06;;;;;;;;;;;;;;;14.47;39.95;101413.72;7362028;19;20328;-60
2022/06/02 00:28:42;;;;;;;;;;;;;;;14.43;39.68;101417.31;7361125;19;22471;-60
2022/06/02 00:31:10;;;;;;;;;;;;;;;14.38;40.22;101416.59;7362790;19;20010;-60
2022/06/02 00:33:39;;;;;;;;;;;;;;;14.33;40.16;101405.34;7361318;19;19933;-60
2022/06/02 00:36:14;;;;;;;;;;;;;;;14.28;40.31;101408.94;7363917;19;20019;-60
2022/06/02 00:38:39;;;;;;;;;;;;;;;14.23;40.00;101408.19;7363503;19;19927;-60
2022/06/02 00:41:34;;;;;;;;;;;;;;;14.19;40.02;101411.84;7363806;19;21375;-61
2022/06/02 00:43:59;;;;;;;;;;;;;;;14.14;40.06;101411.09;7257172;19;2004174;-60
2022/06/02 00:46:34;;;;;;;;;;;;;;;14.08;40.05;101405.97;7362616;19;19911;-61
2022/06/02 00:49:05;;;;;;;;;;;;;;;14.02;40.59;101406.16;7362413;19;20046;-60
2022/06/02 00:51:53;;;;;;;;;;;;;;;13.95;40.42;101394.09;7360363;19;19923;-60
2022/06/02 00:59:59;;;;;;;;;;;;;;;13.76;40.24;101394.53;7357657;19;19922;-60
2022/06/02 01:02:26;;;;;;;;;;;;;;;13.67;40.51;101394.75;7362025;19;20636;-60
2022/06/02 01:04:53;;;;;;;;;;;;;;;13.61;40.96;101394.91;7362392;19;20734;-60
2022/06/02 01:07:24;;;;;;;;;;;;;;;13.56;40.88;101388.91;7362685;19;19927;-60
2022/06/02 01:10:08;;;;;;;;;;;;;;;13.53;41.02;101388.97;7361623;19;19922;-60
2022/06/02 01:12:45;;;;;;;;;;;;;;;13.49;41.04;101390.81;7360541;19;19936;-60
2022/06/02 01:15:22;;;;;;;;;;;;;;;13.47;41.36;101391.75;7359306;19;19930;-60
2022/06/02 01:17:47;;;;;;;;;;;;;;;13.43;41.53;101390.97;7361399;19;20002;-60
2022/06/02 01:20:13;;;;;;;;;;;;;;;13.40;40.95;101387.56;7367188;19;20380;-60
2022/06/02 01:22:47;;;;;;;;;;;;;;;13.35;41.52;101385.03;7366190;19;20701;-60
2022/06/02 01:25:13;;;;;;;;;;;;;;;13.32;41.64;101392.09;7368538;19;19925;-60
2022/06/02 01:27:57;;;;;;;;;;;;;;;13.28;41.25;101387.81;7368759;19;19927;-61
2022/06/02 01:30:40;;;;;;;;;;;;;;;13.23;41.19;101391.44;7368304;19;19923;-60
2022/06/02 01:33:20;;;;;;;;;;;;;;;13.20;41.77;101394.09;7366975;19;19926;-61
2022/06/02 01:35:45;;;;;;;;;;;;;;;13.16;41.49;101402.91;7365979;19;20018;-61
2022/06/02 01:38:26;;;;;;;;;;;;;;;13.12;41.79;101401.25;7367690;19;19995;-60
2022/06/02 01:41:10;;;;;;;;;;;;;;;13.10;41.65;101410.06;7369237;19;19932;-61
2022/06/02 01:43:35;;;;;;;;;;;;;;;13.04;41.38;101397.94;7363603;19;19911;-61
2022/06/02 01:46:09;;;;;;;;;;;;;;;13.02;41.88;101404.09;7366864;19;19914;-59
2022/06/02 01:48:50;;;;;;;;;;;;;;;12.97;41.01;101417.31;7367430;19;19918;-60
2022/06/02 01:51:24;;;;;;;;;;;;;;;12.90;41.47;101410.47;7368108;19;20007;-60
2022/06/02 01:53:52;;;;;;;;;;;;;;;12.83;40.72;101419.38;7365493;19;19930;-60
2022/06/02 01:56:24;;;;;;;;;;;;;;;12.73;40.82;101414.31;7368040;19;20468;-60
2022/06/02 01:59:01;;;;;;;;;;;;;;;12.63;41.01;101425.88;7358820;19;19934;-61
2022/06/02 02:01:30;;;;;;;;;;;;;;;12.53;41.37;101419.09;7367125;19;19923;-60
2022/06/02 02:03:55;;;;;;;;;;;;;;;12.46;41.74;101409.59;7369122;19;20608;-60
2022/06/02 02:06:28;;;;;;;;;;;;;;;12.40;42.19;101405.34;7367991;19;19923;-60
2022/06/02 02:09:08;;;;;;;;;;;;;;;12.37;42.13;101410.66;7366196;19;19961;-60
2022/06/02 02:12:03;;;;;;;;;;;;;;;12.35;42.71;101411.56;7366160;19;19918;-60
2022/06/02 02:14:31;;;;;;;;;;;;;;;12.33;42.79;101408.13;7261813;19;2004369;-60
2022/06/02 02:16:57;;;;;;;;;;;;;;;12.31;42.63;101407.28;7367486;19;19930;-60
2022/06/02 02:19:37;;;;;;;;;;;;;;;12.30;42.41;101397.69;7367207;19;19926;-60
2022/06/02 02:22:11;;;;;;;;;;;;;;;12.29;42.77;101396.84;7364305;19;19929;-60
2022/06/02 02:24:49;;;;;;;;;;;;;;;12.27;43.02;101398.63;7366980;19;20343;-60
2022/06/02 02:27:32;;;;;;;;;;;;;;;12.26;42.76;101388.16;7368564;19;19939;-60
2022/06/02 02:30:05;;;;;;;;;;;;;;;12.23;42.81;101396.09;7362624;19;20004;-60
2022/06/02 02:32:36;;;;;;;;;;;;;;;12.19;42.98;101388.28;7364957;19;20243;-60
2022/06/02 02:35:39;;;;;;;;;;;;;;;12.17;42.97;101387.47;7366004;19;19928;-60
2022/06/02 02:38:10;;;;;;;;;;;;;;;12.15;42.92;101389.22;7259748;19;2004501;-60
2022/06/02 02:40:45;;;;;;;;;;;;;;;12.12;43.01;101389.31;7365221;19;19918;-60
2022/06/02 02:43:14;;;;;;;;;;;;;;;12.08;43.30;101387.63;7362820;19;19923;-61
2022/06/02 02:45:40;;;;;;;;;;;;;;;12.07;43.32;101385.03;7365846;19;19923;-60
2022/06/02 02:48:06;;;;;;;;;;;;;;;12.03;42.94;101392.06;7365704;19;19940;-60
2022/06/02 02:50:34;;;;;;;;;;;;;;;12.00;43.37;101386.88;7361454;19;19985;-60
2022/06/02 02:53:06;;;;;;;;;;;;;;;11.98;42.91;101386.06;7362627;19;20047;-60
2022/06/02 02:55:39;;;;;;;;;;;;;;;11.89;43.38;101371.38;7365371;19;19923;-60
2022/06/02 02:58:08;;;;;;;;;;;;;;;11.87;43.22;101373.16;7365682;19;19915;-60
2022/06/02 03:00:37;;;;;;;;;;;;;;;11.90;43.44;101377.47;7365752;19;19988;-60
2022/06/02 03:03:06;;;;;;;;;;;;;;;11.87;43.66;101372.31;7366226;19;19925;-60
2022/06/02 03:05:37;;;;;;;;;;;;;;;11.85;43.40;101376.69;7351153;19;19947;-60
2022/06/02 03:08:11;;;;;;;;;;;;;;;11.82;43.55;101375.00;7364634;19;19923;-61
2022/06/02 03:10:38;;;;;;;;;;;;;;;11.81;43.75;101367.13;7364484;19;19932;-60
2022/06/02 03:13:09;;;;;;;;;;;;;;;11.80;43.96;101365.41;7367030;19;19947;-60
2022/06/02 03:15:52;;;;;;;;;;;;;;;11.78;43.75;101356.72;7366567;19;19998;-60
2022/06/02 03:18:55;;;;;;;;;;;;;;;11.75;43.84;101357.63;7354167;19;19919;-60
2022/06/02 03:21:30;;;;;;;;;;;;;;;11.74;43.94;101355.03;7259798;19;2004262;-60
2022/06/02 03:23:58;;;;;;;;;;;;;;;11.70;43.72;101352.47;7358331;19;19927;-61
2022/06/02 03:26:26;;;;;;;;;;;;;;;11.69;44.08;101353.34;7365686;19;19944;-60
2022/06/02 03:29:03;;;;;;;;;;;;;;;11.67;44.02;101349.91;7367576;19;19927;-60
2022/06/02 03:31:28;;;;;;;;;;;;;;;11.65;44.38;101351.69;7364561;19;19931;-61
2022/06/02 03:34:09;;;;;;;;;;;;;;;11.64;43.82;101349.94;7365971;19;19936;-60
2022/06/02 03:36:37;;;;;;;;;;;;;;;11.58;44.13;101347.44;7366652;19;19922;-61
2022/06/02 03:39:12;;;;;;;;;;;;;;;11.60;42.79;101348.28;7359798;19;19961;-60
2022/06/02 03:41:52;;;;;;;;;;;;;;;11.59;44.14;101346.56;7368215;19;19934;-60
2022/06/02 03:44:30;;;;;;;;;;;;;;;11.57;43.97;101348.34;7364393;19;19929;-60
2022/06/02 03:47:07;;;;;;;;;;;;;;;11.54;44.25;101343.16;7364752;19;19910;-59
2022/06/02 03:49:51;;;;;;;;;;;;;;;11.54;44.25;101343.16;7366257;19;19918;-60
2022/06/02 03:52:26;;;;;;;;;;;;;;;11.52;44.51;101347.56;7366010;19;19911;-60
2022/06/02 03:54:51;;;;;;;;;;;;;;;11.51;44.55;101343.22;7364659;19;20275;-60
2022/06/02 03:57:35;;;;;;;;;;;;;;;11.51;44.57;101340.59;7365120;19;19919;-60
2022/06/02 04:00:07;;;;;;;;;;;;;;;11.50;45.03;101341.47;7364347;19;20294;-60
2022/06/02 04:02:48;;;;;;;;;;;;;;;11.50;44.70;101340.59;7365525;19;19942;-60
2022/06/02 04:05:33;;;;;;;;;;;;;;;11.49;44.40;101339.75;7368874;19;20750;-60
2022/06/02 04:08:23;;;;;;;;;;;;;;;11.49;44.35;101333.66;7363638;19;20590;-60
2022/06/02 04:11:06;;;;;;;;;;;;;;;11.50;44.71;101336.22;7360619;19;19918;-61
2022/06/02 04:13:37;;;;;;;;;;;;;;;11.48;45.26;101332.78;7366975;19;19919;-60
2022/06/02 04:16:05;;;;;;;;;;;;;;;11.49;45.10;101333.66;7367195;19;19917;-60
2022/06/02 04:18:43;;;;;;;;;;;;;;;11.49;45.12;101338.88;7364569;19;20769;-60
2022/06/02 04:21:26;;;;;;;;;;;;;;;11.48;44.76;101330.19;7364652;19;20363;-60
2022/06/02 04:24:06;;;;;;;;;;;;;;;11.49;45.06;101331.91;7365098;19;19919;-60
2022/06/02 04:26:47;;;;;;;;;;;;;;;11.49;45.08;101329.28;7365161;19;19933;-60
2022/06/02 04:29:31;;;;;;;;;;;;;;;11.49;45.58;101334.50;7364169;19;19923;-60
2022/06/02 04:31:57;;;;;;;;;;;;;;;11.49;45.44;101334.50;7365890;19;19914;-60
2022/06/02 04:34:22;;;;;;;;;;;;;;;11.49;45.28;101329.28;7363984;19;20934;-60
2022/06/02 04:37:06;;;;;;;;;;;;;;;11.48;45.20;101321.47;7365482;19;20534;-60
2022/06/02 04:39:46;;;;;;;;;;;;;;;11.48;45.17;101322.31;7364646;19;20343;-60
2022/06/02 04:42:19;;;;;;;;;;;;;;;11.48;44.48;101316.25;7362943;19;19918;-60
2022/06/02 04:45:00;;;;;;;;;;;;;;;11.48;45.34;101322.31;7366435;19;19921;-60
2022/06/02 04:47:25;;;;;;;;;;;;;;;11.48;44.79;101311.88;7364374;19;19915;-61
2022/06/02 04:50:09;;;;;;;;;;;;;;;11.48;45.32;101322.31;7364327;19;19929;-60
2022/06/02 04:52:34;;;;;;;;;;;;;;;11.50;44.86;101324.91;7364612;19;19929;-60
2022/06/02 04:55:15;;;;;;;;;;;;;;;11.49;45.31;101313.59;7375503;19;21564;-60
2022/06/02 04:57:46;;;;;;;;;;;;;;;11.50;45.58;101320.53;7378913;19;20481;-59
2022/06/02 05:00:34;;;;;;;;;;;;;;;11.51;45.24;101322.28;7378964;19;20410;-60
2022/06/02 05:03:05;;;;;;;;;;;;;;;11.52;45.12;101315.31;7378899;19;19915;-60
2022/06/02 05:05:33;;;;;;;;;;;;;;;11.53;45.35;101320.50;7375727;19;19927;-60
2022/06/02 05:08:01;;;;;;;;;;;;;;;11.54;45.56;101322.22;7377336;19;19931;-60
2022/06/02 05:10:34;;;;;;;;;;;;;;;11.58;45.31;101325.66;7378656;19;20390;-60
2022/06/02 05:13:00;;;;;;;;;;;;;;;11.59;45.74;101320.38;7376071;19;19998;-60
2022/06/02 05:15:31;;;;;;;;;;;;;;;11.63;46.21;101327.31;7378889;19;19934;-60
2022/06/02 05:18:15;;;;;;;;;;;;;;;11.63;45.89;101324.69;7376262;19;19922;-60
2022/06/02 05:20:59;;;;;;;;;;;;;;;11.66;46.24;101316.81;7377461;19;20327;-60
2022/06/02 05:23:44;;;;;;;;;;;;;;;11.71;46.21;101321.97;7378536;19;19935;-59
2022/06/02 05:26:28;;;;;;;;;;;;;;;11.74;46.36;101321.88;7375384;19;19911;-60
2022/06/02 05:28:53;;;;;;;;;;;;;;;11.79;46.31;101321.81;7377381;19;19958;-60
2022/06/02 05:31:31;;;;;;;;;;;;;;;11.80;46.45;101319.16;7378514;19;20712;-61
2022/06/02 05:33:57;;;;;;;;;;;;;;;11.85;46.56;101322.59;7377921;19;19929;-60
2022/06/02 05:36:34;;;;;;;;;;;;;;;11.88;46.23;101332.16;7378561;19;19933;-60
2022/06/02 05:39:09;;;;;;;;;;;;;;;11.92;46.50;101331.22;7376516;19;19918;-60
2022/06/02 05:41:40;;;;;;;;;;;;;;;11.96;46.62;101330.22;7376371;19;20274;-60
2022/06/02 05:44:05;;;;;;;;;;;;;;;12.00;46.56;101328.44;7375403;19;19930;-60
2022/06/02 05:46:46;;;;;;;;;;;;;;;12.03;45.67;101331.88;7378325;19;20267;-60
2022/06/02 05:49:24;;;;;;;;;;;;;;;12.07;46.31;101338.78;7375957;19;20006;-61
2022/06/02 05:51:55;;;;;;;;;;;;;;;12.10;46.25;101338.69;7378043;19;19918;-60
2022/06/02 05:54:33;;;;;;;;;;;;;;;12.13;46.57;101338.66;7376401;19;19922;-60
2022/06/02 05:57:13;;;;;;;;;;;;;;;12.16;46.11;101332.47;7370981;19;19925;-60
2022/06/02 05:59:39;;;;;;;;;;;;;;;12.18;46.91;101342.06;7364898;19;20727;-58
2022/06/02 06:02:22;;;;;;;;;;;;;;;12.22;46.99;101342.00;7370094;19;19910;-60
2022/06/02 06:05:03;;;;;;;;;;;;;;;12.25;46.76;101336.69;7362957;19;19922;-60
2022/06/02 06:07:36;;;;;;;;;;;;;;;12.28;47.01;101331.41;7367100;19;20275;-60
2022/06/02 06:10:13;;;;;;;;;;;;;;;12.33;46.56;101332.19;7367200;19;19923;-60
2022/06/02 06:12:51;;;;;;;;;;;;;;;12.38;47.02;101325.09;7363071;19;20418;-60
2022/06/02 06:15:27;;;;;;;;;;;;;;;12.43;46.78;101334.56;7366963;19;19926;-60
2022/06/02 06:18:09;;;;;;;;;;;;;;;12.50;46.73;101340.53;7367723;19;20019;-60
2022/06/02 06:20:53;;;;;;;;;;;;;;;12.55;46.82;101341.31;7367776;19;19923;-60
2022/06/02 06:23:21;;;;;;;;;;;;;;;12.61;46.94;101343.81;7367444;19;19921;-60
2022/06/02 06:25:46;;;;;;;;;;;;;;;12.68;45.74;101342.78;7366804;19;20349;-60
2022/06/02 06:28:11;;;;;;;;;;;;;;;12.72;45.92;101341.84;7367622;19;19914;-60
2022/06/02 06:30:44;;;;;;;;;;;;;;;12.81;45.80;101353.00;7367267;19;19922;-60
2022/06/02 06:33:17;;;;;;;;;;;;;;;12.86;45.63;101346.75;7368944;19;19931;-60
2022/06/02 06:35:57;;;;;;;;;;;;;;;12.93;44.78;101337.88;7365821;19;19926;-60
2022/06/02 06:38:22;;;;;;;;;;;;;;;13.00;45.83;101338.59;7366504;19;20369;-61
2022/06/02 06:41:05;;;;;;;;;;;;;;;13.06;45.73;101337.59;7368563;19;22984;-60
2022/06/02 06:43:39;;;;;;;;;;;;;;;13.11;45.87;101346.22;7364464;19;20399;-60
2022/06/02 06:46:17;;;;;;;;;;;;;;;13.17;46.70;101346.94;7367495;19;19918;-60
2022/06/02 06:48:45;;;;;;;;;;;;;;;13.26;45.67;101345.03;7361849;19;19957;-60
2022/06/02 06:51:17;;;;;;;;;;;;;;;13.31;46.38;101348.41;7356261;19;20425;-60
2022/06/02 06:53:48;;;;;;;;;;;;;;;13.38;46.49;101344.75;7345288;19;21405;-60
2022/06/02 06:56:16;;;;;;;;;;;;;;;13.45;46.89;101347.19;7351690;19;20252;-60
2022/06/02 06:58:42;;;;;;;;;;;;;;;13.52;46.96;101336.53;7358064;19;19910;-60
2022/06/02 07:01:07;;;;;;;;;;;;;;;13.58;46.31;101342.50;7360594;19;19921;-61
2022/06/02 07:03:32;;;;;;;;;;;;;;;13.65;46.73;101341.47;7363785;19;20786;-60
2022/06/02 07:06:02;;;;;;;;;;;;;;;13.73;46.84;101336.84;7364336;19;20333;-59
2022/06/02 07:08:33;;;;;;;;;;;;;;;13.82;46.49;101348.03;7367256;19;19931;-60
2022/06/02 07:12:50;;;;;;;;;;;;;;;13.89;47.30;101342.59;7356533;19;20447;-60
2022/06/02 07:14:04;;;;;;;;;;;;;;;13.98;47.19;101344.94;7258721;19;2004616;-60
2022/06/02 07:16:29;;;;;;;;;;;;;;;14.06;46.62;101344.75;7361197;19;19985;-60
2022/06/02 07:19:02;;;;;;;;;;;;;;;14.13;46.18;101346.31;7361663;19;20368;-60
2022/06/02 07:21:32;;;;;;;;;;;;;;;14.21;47.13;101344.34;7364876;19;20718;-60
2022/06/02 07:23:57;;;;;;;;;;;;;;;14.30;46.45;101337.13;7361770;19;19922;-60
2022/06/02 07:26:50;;;;;;;;;;;;;;;14.36;46.87;101342.22;7364504;19;19919;-61
2022/06/02 07:29:23;;;;;;;;;;;;;;;14.47;46.67;101340.13;7262643;19;2004657;-59
2022/06/02 07:32:08;;;;;;;;;;;;;;;14.55;46.79;101338.19;7361974;19;19922;-60
2022/06/02 07:34:42;;;;;;;;;;;;;;;14.64;45.66;101332.63;7361122;19;19926;-60
2022/06/02 07:37:16;;;;;;;;;;;;;;;14.73;45.80;101340.25;7354049;19;19929;-60
2022/06/02 07:40:00;;;;;;;;;;;;;;;14.82;45.28;101347.03;7364448;19;19919;-60
2022/06/02 07:42:34;;;;;;;;;;;;;;;14.92;45.97;101331.81;7364109;19;19943;-60
2022/06/02 07:45:18;;;;;;;;;;;;;;;15.00;45.67;101332.44;7365057;19;19986;-61
2022/06/02 07:48:09;;;;;;;;;;;;;;;15.10;45.47;101328.59;7365800;19;19963;-60
2022/06/02 07:50:39;;;;;;;;;;;;;;;15.20;45.54;101332.66;7258076;19;2004379;-60
2022/06/02 07:53:15;;;;;;;;;;;;;;;15.29;45.37;101337.66;7354850;19;19925;-60
2022/06/02 07:55:59;;;;;;;;;;;;;;;15.40;45.39;101326.75;7360987;19;20037;-61
2022/06/02 07:58:31;;;;;;;;;;;;;;;15.51;45.64;101324.66;7365258;19;19923;-59
2022/06/02 08:01:11;;;;;;;;;;;;;;;15.64;45.66;101317.22;7364565;19;19911;-58
2022/06/02 08:03:48;;;;;;;;;;;;;;;15.79;45.78;101321.97;7364083;19;20454;-60
2022/06/02 08:06:25;;;;;;;;;;;;;;;15.96;45.80;101328.44;7366266;19;20583;-60
2022/06/02 08:09:16;;;;;;;;;;;;;;;16.15;45.50;101324.22;7360540;19;21029;-60
2022/06/02 08:11:42;;;;;;;;;;;;;;;16.32;45.70;101321.88;7265913;19;2004438;-60
2022/06/02 08:14:07;;;;;;;;;;;;;;;16.50;45.62;101322.09;7365840;19;19964;-60
2022/06/02 08:16:46;;;;;;;;;;;;;;;16.67;45.85;101334.63;7364496;19;20036;-60
2022/06/02 08:19:14;;;;;;;;;;;;;;;16.84;45.85;101324.34;7367566;19;20347;-59
2022/06/02 08:21:42;;;;;;;;;;;;;;;17.01;45.72;101327.16;7367355;19;20249;-60
2022/06/02 08:24:27;;;;;;;;;;;;;;;17.18;45.12;101318.56;7366328;19;19947;-60
2022/06/02 08:27:12;;;;;;;;;;;;;;;17.35;44.82;101324.03;7368186;19;19927;-60
2022/06/02 08:29:55;;;;;;;;;;;;;;;17.53;44.63;101319.75;7359517;19;19915;-60
2022/06/02 08:32:37;;;;;;;;;;;;;;;17.71;44.53;101323.44;7366782;19;20259;-60
2022/06/02 08:35:08;;;;;;;;;;;;;;;17.87;44.78;101324.50;7366350;19;20708;-60
2022/06/02 08:38:07;;;;;;;;;;;;;;;18.04;44.88;101318.50;7364514;19;19918;-60
2022/06/02 08:40:41;;;;;;;;;;;;;;;18.24;44.39;101319.41;7262663;19;2004530;-60
2022/06/02 08:43:32;;;;;;;;;;;;;;;18.38;44.04;101317.84;7365333;19;19955;-60
2022/06/02 08:46:17;;;;;;;;;;;;;;;18.52;44.39;101326.94;7364330;19;19919;-60
2022/06/02 08:48:46;;;;;;;;;;;;;;;18.64;43.96;101321.94;7364250;19;19929;-60
2022/06/02 08:51:14;;;;;;;;;;;;;;;18.75;44.08;101313.53;7365367;19;19943;-60
2022/06/02 08:53:58;;;;;;;;;;;;;;;18.86;44.37;101305.13;7366846;19;19922;-61
2022/06/02 08:56:33;;;;;;;;;;;;;;;19.02;44.11;101311.38;7366141;19;19922;-60
2022/06/02 08:59:04;;;;;;;;;;;;;;;19.15;44.03;101306.34;7364725;19;19922;-61
2022/06/02 09:01:30;;;;;;;;;;;;;;;19.27;44.06;101311.06;7366069;19;20521;-60
2022/06/02 09:04:28;;;;;;;;;;;;;;;19.38;44.02;101308.72;7365929;19;19923;-61
2022/06/02 09:06:53;;;;;;;;;;;;;;;19.52;43.88;101315.13;7262354;19;2004158;-61
2022/06/02 09:09:18;;;;;;;;;;;;;;;19.62;43.72;101297.88;7362839;19;19923;-60
2022/06/02 09:11:55;;;;;;;;;;;;;;;19.72;43.68;101312.38;7362542;19;20437;-60
2022/06/02 09:14:24;;;;;;;;;;;;;;;19.84;43.62;101306.41;7363313;19;19922;-61
2022/06/02 09:17:01;;;;;;;;;;;;;;;19.97;43.44;101306.63;7364135;19;19922;-60
2022/06/02 09:19:39;;;;;;;;;;;;;;;20.08;43.24;101301.63;7362783;19;19915;-60
2022/06/02 09:22:04;;;;;;;;;;;;;;;20.18;43.41;101309.97;7365322;19;19933;-60
2022/06/02 09:24:41;;;;;;;;;;;;;;;20.27;43.55;101304.16;7364753;19;19914;-61
2022/06/02 09:27:24;;;;;;;;;;;;;;;20.44;43.39;101308.56;7363964;19;19919;-61
2022/06/02 09:29:59;;;;;;;;;;;;;;;20.68;43.61;101304.59;7365999;19;19983;-60
2022/06/02 09:32:24;;;;;;;;;;;;;;;20.93;43.23;101303.22;7362763;19;19931;-61
2022/06/02 09:34:52;;;;;;;;;;;;;;;21.14;43.37;101298.50;7365550;19;19918;-61
2022/06/02 09:37:27;;;;;;;;;;;;;;;21.36;42.94;101301.66;7363529;19;20286;-60
2022/06/02 09:40:10;;;;;;;;;;;;;;;21.59;43.19;101304.75;7367476;19;19934;-60
2022/06/02 09:42:39;;;;;;;;;;;;;;;21.79;42.63;101293.78;7370127;19;19926;-61
2022/06/02 09:45:16;;;;;;;;;;;;;;;21.96;42.60;101290.13;7369657;19;19914;-61
2022/06/02 09:47:54;;;;;;;;;;;;;;;22.14;42.51;101288.16;7368106;19;19922;-60
2022/06/02 09:50:22;;;;;;;;;;;;;;;22.28;42.33;101281.03;7367842;19;19934;-60
2022/06/02 09:53:08;;;;;;;;;;;;;;;22.39;41.85;101293.66;7370269;19;20170;-61
2022/06/02 09:55:37;;;;;;;;;;;;;;;22.47;42.10;101283.41;7368077;19;20550;-61
2022/06/02 09:58:21;;;;;;;;;;;;;;;22.51;41.84;101281.41;7369724;19;19955;-60
2022/06/02 10:00:55;;;;;;;;;;;;;;;22.51;41.09;101287.59;7369135;19;19914;-60
2022/06/02 10:03:22;;;;;;;;;;;;;;;22.47;41.01;101291.38;7369194;19;20994;-60
2022/06/02 10:05:47;;;;;;;;;;;;;;;22.38;40.46;101291.97;7370980;19;20317;-61
2022/06/02 10:08:31;;;;;;;;;;;;;;;22.27;40.84;101283.78;7366911;19;19915;-61
2022/06/02 10:11:04;;;;;;;;;;;;;;;22.15;40.32;101284.53;7369866;19;19922;-60
2022/06/02 10:13:29;;;;;;;;;;;;;;;22.02;40.39;101290.59;7367265;19;19914;-60
2022/06/02 10:16:04;;;;;;;;;;;;;;;21.88;40.38;101293.22;7371161;19;19935;-60
2022/06/02 10:18:30;;;;;;;;;;;;;;;21.75;40.44;101289.63;7370096;19;19990;-60
2022/06/02 10:21:14;;;;;;;;;;;;;;;21.68;40.56;101285.59;7370903;19;22348;-60
2022/06/02 10:23:48;;;;;;;;;;;;;;;21.63;40.27;101285.03;7370347;19;20399;-60
2022/06/02 10:26:19;;;;;;;;;;;;;;;21.55;39.92;101284.66;7370596;19;19972;-61
2022/06/02 10:28:44;;;;;;;;;;;;;;;21.50;40.10;101282.25;7370591;19;19921;-60
2022/06/02 10:31:28;;;;;;;;;;;;;;;21.46;40.07;101276.25;7369163;19;19975;-60
2022/06/02 10:34:12;;;;;;;;;;;;;;;21.40;40.10;101279.28;7366971;19;19926;-60
2022/06/02 10:36:40;;;;;;;;;;;;;;;21.44;40.37;101283.47;7370197;19;20426;-61
2022/06/02 10:39:25;;;;;;;;;;;;;;;21.48;40.72;101277.00;7369098;19;19923;-61
2022/06/02 10:41:59;;;;;;;;;;;;;;;21.53;40.39;101278.53;7370336;19;20621;-60
2022/06/02 10:44:30;;;;;;;;;;;;;;;21.58;40.68;101284.44;7368531;19;20002;-60
2022/06/02 10:47:22;;;;;;;;;;;;;;;21.68;40.49;101285.59;7366640;19;19918;-61
2022/06/02 10:49:59;;;;;;;;;;;;;;;21.82;40.50;101282.97;7266120;19;2004350;-60
2022/06/02 10:52:38;;;;;;;;;;;;;;;21.99;40.67;101279.28;7366390;19;19922;-60
2022/06/02 10:55:19;;;;;;;;;;;;;;;22.15;40.35;101284.53;7369325;19;20008;-61
2022/06/02 10:57:53;;;;;;;;;;;;;;;22.27;40.08;101289.13;7368560;19;20478;-60
2022/06/02 11:00:41;;;;;;;;;;;;;;;22.33;39.69;101277.22;7368108;19;19915;-61
2022/06/02 11:03:12;;;;;;;;;;;;;;;22.44;39.88;101275.59;7365194;19;19915;-61
2022/06/02 11:05:45;;;;;;;;;;;;;;;22.51;39.98;101276.94;7368140;19;19950;-60
2022/06/02 11:08:13;;;;;;;;;;;;;;;22.58;39.96;101271.22;7368083;19;20577;-60
2022/06/02 11:10:57;;;;;;;;;;;;;;;22.61;39.87;101276.31;7368071;19;19955;-60
2022/06/02 11:13:36;;;;;;;;;;;;;;;22.67;39.72;101275.97;7367587;19;19919;-60
2022/06/02 11:16:01;;;;;;;;;;;;;;;22.67;39.44;101270.63;7369492;19;19922;-61
2022/06/02 11:18:42;;;;;;;;;;;;;;;22.63;39.30;101267.31;7367407;19;19994;-61
2022/06/02 11:21:33;;;;;;;;;;;;;;;22.62;39.40;101270.94;7368144;19;19922;-60
2022/06/02 11:24:24;;;;;;;;;;;;;;;22.58;39.14;101261.41;7266040;19;2004371;-60
2022/06/02 11:27:14;;;;;;;;;;;;;;;22.51;39.13;101263.63;7267105;19;2004503;-60
2022/06/02 11:29:40;;;;;;;;;;;;;;;22.43;39.13;101263.25;7260876;19;2004437;-60
2022/06/02 11:32:27;;;;;;;;;;;;;;;22.37;39.17;101268.13;7362231;19;19947;-61
2022/06/02 11:34:52;;;;;;;;;;;;;;;22.27;38.82;101262.50;7364988;19;20251;-60
2022/06/02 11:37:37;;;;;;;;;;;;;;;22.16;39.00;101259.66;7364704;19;19915;-60
2022/06/02 11:40:23;;;;;;;;;;;;;;;22.05;39.15;101268.28;7366997;19;19926;-60
2022/06/02 11:43:09;;;;;;;;;;;;;;;21.95;38.64;101267.16;7364135;19;19919;-60
2022/06/02 11:45:34;;;;;;;;;;;;;;;21.86;39.12;101257.91;7361519;19;19947;-60
2022/06/02 11:48:15;;;;;;;;;;;;;;;21.80;39.16;101266.28;7363224;19;19922;-61
2022/06/02 11:50:40;;;;;;;;;;;;;;;21.77;38.83;101247.84;7366922;19;19922;-60
2022/06/02 11:53:05;;;;;;;;;;;;;;;21.76;39.11;101254.09;7365082;19;19914;-60
2022/06/02 11:55:41;;;;;;;;;;;;;;;21.72;38.67;101250.78;7364106;19;19914;-60
2022/06/02 11:58:24;;;;;;;;;;;;;;;21.68;38.62;101254.56;7366931;19;19974;-60
2022/06/02 12:00:55;;;;;;;;;;;;;;;21.61;38.74;101247.06;7367394;19;19934;-60
2022/06/02 12:03:48;;;;;;;;;;;;;;;21.54;38.63;101248.34;7361409;19;19926;-60
2022/06/02 12:06:22;;;;;;;;;;;;;;;21.50;39.16;101255.69;7256545;19;2004379;-60
2022/06/02 12:09:03;;;;;;;;;;;;;;;21.47;39.18;101248.72;7365954;19;20546;-61
2022/06/02 12:11:28;;;;;;;;;;;;;;;21.44;38.67;101251.59;7364819;19;19947;-61
2022/06/02 12:14:05;;;;;;;;;;;;;;;21.41;38.85;101250.91;7366766;19;19923;-61
2022/06/02 12:16:49;;;;;;;;;;;;;;;21.38;39.18;101245.75;7365135;19;19915;-60
2022/06/02 12:19:14;;;;;;;;;;;;;;;21.37;39.21;101247.56;7366893;19;20365;-60
2022/06/02 12:21:46;;;;;;;;;;;;;;;21.34;39.20;101247.75;7366269;19;19975;-60
2022/06/02 12:24:26;;;;;;;;;;;;;;;21.29;38.70;101251.56;7364067;19;19918;-60
2022/06/02 12:26:51;;;;;;;;;;;;;;;21.21;38.95;101252.91;7366569;19;19922;-60
2022/06/02 12:29:24;;;;;;;;;;;;;;;21.15;39.08;101245.28;7365454;19;19911;-60
2022/06/02 12:32:09;;;;;;;;;;;;;;;21.09;39.17;101247.47;7363262;19;19924;-60
2022/06/02 12:34:54;;;;;;;;;;;;;;;21.03;38.97;101248.63;7362350;19;19914;-60
2022/06/02 12:37:38;;;;;;;;;;;;;;;20.95;39.08;101243.78;7365537;19;19918;-61
2022/06/02 12:40:14;;;;;;;;;;;;;;;20.87;39.09;101251.31;7363962;19;19946;-60
2022/06/02 12:42:53;;;;;;;;;;;;;;;20.79;39.13;101250.06;7357446;19;19914;-60
2022/06/02 12:45:34;;;;;;;;;;;;;;;20.68;39.13;101245.34;7363808;19;19914;-60
2022/06/02 12:48:02;;;;;;;;;;;;;;;20.59;39.23;101245.88;7359784;19;19933;-61
2022/06/02 12:50:46;;;;;;;;;;;;;;;20.50;39.10;101241.94;7358285;19;19994;-61
2022/06/02 12:53:30;;;;;;;;;;;;;;;20.41;39.42;101237.09;7358361;19;19926;-60
2022/06/02 12:56:01;;;;;;;;;;;;;;;20.33;39.64;101244.63;7365154;19;20012;-61
2022/06/02 12:58:45;;;;;;;;;;;;;;;20.25;39.83;101237.06;7363807;19;19978;-60
2022/06/02 13:01:20;;;;;;;;;;;;;;;20.17;39.95;101228.66;7363628;19;20619;-61
2022/06/02 13:03:48;;;;;;;;;;;;;;;20.12;39.98;101233.38;7366015;19;20651;-60
2022/06/02 13:06:13;;;;;;;;;;;;;;;20.07;40.10;101227.47;7365166;19;19922;-61
2022/06/02 13:08:57;;;;;;;;;;;;;;;20.03;40.13;101231.25;7365835;19;19915;-60
2022/06/02 13:11:25;;;;;;;;;;;;;;;19.96;40.58;101226.25;7363808;19;19928;-60
2022/06/02 13:14:09;;;;;;;;;;;;;;;19.93;40.25;101220.28;7366618;19;19946;-60
2022/06/02 13:16:52;;;;;;;;;;;;;;;19.91;40.81;101222.97;7371035;19;20454;-60
2022/06/02 13:19:17;;;;;;;;;;;;;;;19.90;40.73;101215.97;7368450;19;19915;-61
2022/06/02 13:21:42;;;;;;;;;;;;;;;19.91;40.33;101216.81;7371836;19;19931;-60